sensor_id;sensor_type;location;lat;lon;timestamp;P1;durP1;ratioP1;P2;durP2;ratioP2
15261;SDS011;7733;51.554;13.590;2023-06-10T00:01:44;6.07;;;4.27;;
15261;SDS011;7733;51.554;13.590;2023-06-10T00:04:14;4.63;;;4.20;;
15261;SDS011;7733;51.554;13.590;2023-06-10T00:06:41;5.13;;;4.30;;
15261;SDS011;7733;51.554;13.590;2023-06-10T00:09:13;4.60;;;4.20;;
15261;SDS011;7733;51.554;13.590;2023-06-10T00:11:39;5.73;;;4.30;;
15261;SDS011;7733;51.554;13.590;2023-06-10T00:14:06;4.73;;;4.30;;
15261;SDS011;7733;51.554;13.590;2023-06-10T00:16:32;5.10;;;4.20;;
15261;SDS011;7733;51.554;13.590;2023-06-10T00:18:59;4.60;;;4.30;;
15261;SDS011;7733;51.554;13.590;2023-06-10T00:21:26;5.10;;;4.70;;
15261;SDS011;7733;51.554;13.590;2023-06-10T00:23:53;4.63;;;4.10;;
15261;SDS011;7733;51.554;13.590;2023-06-10T00:26:20;5.43;;;4.47;;
15261;SDS011;7733;51.554;13.590;2023-06-10T00:28:49;5.00;;;4.50;;
15261;SDS011;7733;51.554;13.590;2023-06-10T00:31:15;4.77;;;4.37;;
15261;SDS011;7733;51.554;13.590;2023-06-10T00:33:42;4.97;;;4.20;;
15261;SDS011;7733;51.554;13.590;2023-06-10T00:36:08;4.77;;;4.23;;
15261;SDS011;7733;51.554;13.590;2023-06-10T00:38:33;5.57;;;4.07;;
15261;SDS011;7733;51.554;13.590;2023-06-10T00:40:59;5.27;;;4.20;;
15261;SDS011;7733;51.554;13.590;2023-06-10T00:43:25;4.80;;;4.20;;
15261;SDS011;7733;51.554;13.590;2023-06-10T00:45:51;4.73;;;4.20;;
15261;SDS011;7733;51.554;13.590;2023-06-10T00:48:17;5.20;;;3.93;;
15261;SDS011;7733;51.554;13.590;2023-06-10T00:50:44;6.20;;;4.67;;
15261;SDS011;7733;51.554;13.590;2023-06-10T00:53:11;4.67;;;3.80;;
15261;SDS011;7733;51.554;13.590;2023-06-10T00:55:38;4.47;;;4.10;;
15261;SDS011;7733;51.554;13.590;2023-06-10T00:58:04;6.27;;;4.47;;
15261;SDS011;7733;51.554;13.590;2023-06-10T01:00:30;5.37;;;4.07;;
15261;SDS011;7733;51.554;13.590;2023-06-10T01:02:55;4.93;;;4.37;;
15261;SDS011;7733;51.554;13.590;2023-06-10T01:05:22;5.50;;;4.47;;
15261;SDS011;7733;51.554;13.590;2023-06-10T01:11:04;5.93;;;4.70;;
15261;SDS011;7733;51.554;13.590;2023-06-10T01:13:35;5.40;;;4.47;;
15261;SDS011;7733;51.554;13.590;2023-06-10T01:16:06;4.93;;;4.47;;
15261;SDS011;7733;51.554;13.590;2023-06-10T01:18:32;6.30;;;4.30;;
15261;SDS011;7733;51.554;13.590;2023-06-10T01:20:58;4.90;;;4.40;;
15261;SDS011;7733;51.554;13.590;2023-06-10T01:23:24;5.13;;;4.50;;
15261;SDS011;7733;51.554;13.590;2023-06-10T01:25:53;4.97;;;4.57;;
15261;SDS011;7733;51.554;13.590;2023-06-10T01:29:21;5.43;;;4.20;;
15261;SDS011;7733;51.554;13.590;2023-06-10T01:34:17;9.27;;;4.80;;
15261;SDS011;7733;51.554;13.590;2023-06-10T01:36:45;6.30;;;4.37;;
15261;SDS011;7733;51.554;13.590;2023-06-10T01:39:14;5.83;;;4.33;;
15261;SDS011;7733;51.554;13.590;2023-06-10T01:41:42;5.20;;;4.70;;
15261;SDS011;7733;51.554;13.590;2023-06-10T01:44:09;4.97;;;4.50;;
15261;SDS011;7733;51.554;13.590;2023-06-10T01:46:35;5.93;;;4.57;;
15261;SDS011;7733;51.554;13.590;2023-06-10T01:49:01;5.60;;;4.80;;
15261;SDS011;7733;51.554;13.590;2023-06-10T01:51:27;5.80;;;4.80;;
15261;SDS011;7733;51.554;13.590;2023-06-10T01:53:53;5.27;;;4.27;;
15261;SDS011;7733;51.554;13.590;2023-06-10T01:56:18;7.00;;;4.90;;
15261;SDS011;7733;51.554;13.590;2023-06-10T01:58:48;5.97;;;4.80;;
15261;SDS011;7733;51.554;13.590;2023-06-10T02:01:13;6.87;;;4.70;;
15261;SDS011;7733;51.554;13.590;2023-06-10T02:03:39;7.03;;;5.30;;
15261;SDS011;7733;51.554;13.590;2023-06-10T02:06:05;13.73;;;5.23;;
15261;SDS011;7733;51.554;13.590;2023-06-10T02:08:31;6.20;;;4.93;;
15261;SDS011;7733;51.554;13.590;2023-06-10T02:10:57;5.73;;;5.07;;
15261;SDS011;7733;51.554;13.590;2023-06-10T02:13:23;6.70;;;5.30;;
15261;SDS011;7733;51.554;13.590;2023-06-10T02:15:48;5.87;;;4.67;;
15261;SDS011;7733;51.554;13.590;2023-06-10T02:18:14;7.37;;;4.60;;
15261;SDS011;7733;51.554;13.590;2023-06-10T02:20:40;5.77;;;4.97;;
15261;SDS011;7733;51.554;13.590;2023-06-10T02:23:06;5.07;;;4.67;;
15261;SDS011;7733;51.554;13.590;2023-06-10T02:25:32;5.97;;;5.07;;
15261;SDS011;7733;51.554;13.590;2023-06-10T02:27:57;5.30;;;4.70;;
15261;SDS011;7733;51.554;13.590;2023-06-10T02:30:23;7.73;;;4.97;;
15261;SDS011;7733;51.554;13.590;2023-06-10T02:32:49;5.37;;;4.90;;
15261;SDS011;7733;51.554;13.590;2023-06-10T02:35:16;6.17;;;4.87;;
15261;SDS011;7733;51.554;13.590;2023-06-10T02:37:43;5.40;;;4.90;;
15261;SDS011;7733;51.554;13.590;2023-06-10T02:40:09;6.97;;;4.70;;
15261;SDS011;7733;51.554;13.590;2023-06-10T02:42:35;5.70;;;5.10;;
15261;SDS011;7733;51.554;13.590;2023-06-10T02:45:01;5.53;;;4.90;;
15261;SDS011;7733;51.554;13.590;2023-06-10T02:47:28;6.77;;;4.97;;
15261;SDS011;7733;51.554;13.590;2023-06-10T02:49:54;6.17;;;5.20;;
15261;SDS011;7733;51.554;13.590;2023-06-10T02:52:20;7.30;;;5.30;;
15261;SDS011;7733;51.554;13.590;2023-06-10T02:54:46;8.37;;;5.10;;
15261;SDS011;7733;51.554;13.590;2023-06-10T02:57:12;6.23;;;5.43;;
15261;SDS011;7733;51.554;13.590;2023-06-10T02:59:39;5.50;;;5.00;;
15261;SDS011;7733;51.554;13.590;2023-06-10T03:02:05;5.83;;;5.33;;
15261;SDS011;7733;51.554;13.590;2023-06-10T03:04:31;9.07;;;5.43;;
15261;SDS011;7733;51.554;13.590;2023-06-10T03:06:57;8.30;;;5.60;;
15261;SDS011;7733;51.554;13.590;2023-06-10T03:09:22;6.00;;;5.23;;
15261;SDS011;7733;51.554;13.590;2023-06-10T03:11:48;6.13;;;5.47;;
15261;SDS011;7733;51.554;13.590;2023-06-10T03:14:14;8.57;;;5.77;;
15261;SDS011;7733;51.554;13.590;2023-06-10T03:16:40;6.70;;;5.37;;
15261;SDS011;7733;51.554;13.590;2023-06-10T03:19:06;7.60;;;5.20;;
15261;SDS011;7733;51.554;13.590;2023-06-10T03:21:32;6.07;;;5.27;;
15261;SDS011;7733;51.554;13.590;2023-06-10T03:24:02;5.60;;;5.10;;
15261;SDS011;7733;51.554;13.590;2023-06-10T03:26:28;6.97;;;5.30;;
15261;SDS011;7733;51.554;13.590;2023-06-10T03:28:54;8.57;;;5.30;;
15261;SDS011;7733;51.554;13.590;2023-06-10T03:31:20;6.53;;;5.87;;
15261;SDS011;7733;51.554;13.590;2023-06-10T03:33:46;6.03;;;5.43;;
15261;SDS011;7733;51.554;13.590;2023-06-10T03:36:11;5.53;;;5.13;;
15261;SDS011;7733;51.554;13.590;2023-06-10T03:38:37;5.97;;;5.37;;
15261;SDS011;7733;51.554;13.590;2023-06-10T03:41:03;5.80;;;5.30;;
15261;SDS011;7733;51.554;13.590;2023-06-10T03:43:29;6.83;;;5.13;;
15261;SDS011;7733;51.554;13.590;2023-06-10T03:45:56;7.77;;;5.60;;
15261;SDS011;7733;51.554;13.590;2023-06-10T03:48:21;6.07;;;5.60;;
15261;SDS011;7733;51.554;13.590;2023-06-10T03:50:47;6.90;;;5.53;;
15261;SDS011;7733;51.554;13.590;2023-06-10T03:53:15;6.43;;;5.80;;
15261;SDS011;7733;51.554;13.590;2023-06-10T03:55:41;10.63;;;6.20;;
15261;SDS011;7733;51.554;13.590;2023-06-10T03:58:07;7.57;;;5.97;;
15261;SDS011;7733;51.554;13.590;2023-06-10T04:00:33;6.37;;;5.57;;
15261;SDS011;7733;51.554;13.590;2023-06-10T04:03:06;7.20;;;6.47;;
15261;SDS011;7733;51.554;13.590;2023-06-10T04:05:34;6.83;;;5.97;;
15261;SDS011;7733;51.554;13.590;2023-06-10T04:08:00;6.87;;;6.17;;
15261;SDS011;7733;51.554;13.590;2023-06-10T04:10:27;8.33;;;6.00;;
15261;SDS011;7733;51.554;13.590;2023-06-10T04:12:52;6.43;;;5.70;;
15261;SDS011;7733;51.554;13.590;2023-06-10T04:15:18;9.40;;;6.40;;
15261;SDS011;7733;51.554;13.590;2023-06-10T04:17:44;8.80;;;6.30;;
15261;SDS011;7733;51.554;13.590;2023-06-10T04:20:10;8.67;;;6.10;;
15261;SDS011;7733;51.554;13.590;2023-06-10T04:22:36;6.70;;;5.70;;
15261;SDS011;7733;51.554;13.590;2023-06-10T04:25:02;8.87;;;5.87;;
15261;SDS011;7733;51.554;13.590;2023-06-10T04:27:28;10.50;;;6.10;;
15261;SDS011;7733;51.554;13.590;2023-06-10T04:29:55;12.23;;;6.13;;
15261;SDS011;7733;51.554;13.590;2023-06-10T04:32:21;10.37;;;6.30;;
15261;SDS011;7733;51.554;13.590;2023-06-10T04:34:46;11.10;;;6.50;;
15261;SDS011;7733;51.554;13.590;2023-06-10T04:37:12;9.20;;;6.33;;
15261;SDS011;7733;51.554;13.590;2023-06-10T04:39:38;9.63;;;5.90;;
15261;SDS011;7733;51.554;13.590;2023-06-10T04:42:04;11.90;;;6.17;;
15261;SDS011;7733;51.554;13.590;2023-06-10T04:44:30;8.70;;;6.07;;
15261;SDS011;7733;51.554;13.590;2023-06-10T04:46:56;6.87;;;6.13;;
15261;SDS011;7733;51.554;13.590;2023-06-10T04:49:22;6.47;;;5.87;;
15261;SDS011;7733;51.554;13.590;2023-06-10T04:51:47;7.63;;;6.30;;
15261;SDS011;7733;51.554;13.590;2023-06-10T04:54:13;7.10;;;6.40;;
15261;SDS011;7733;51.554;13.590;2023-06-10T04:56:39;8.50;;;6.57;;
15261;SDS011;7733;51.554;13.590;2023-06-10T04:59:04;7.60;;;6.40;;
15261;SDS011;7733;51.554;13.590;2023-06-10T05:01:30;9.53;;;6.77;;
15261;SDS011;7733;51.554;13.590;2023-06-10T05:03:56;6.67;;;6.07;;
15261;SDS011;7733;51.554;13.590;2023-06-10T05:06:21;6.83;;;6.13;;
15261;SDS011;7733;51.554;13.590;2023-06-10T05:08:47;7.57;;;6.87;;
15261;SDS011;7733;51.554;13.590;2023-06-10T05:11:13;6.73;;;6.00;;
15261;SDS011;7733;51.554;13.590;2023-06-10T05:13:39;8.00;;;6.40;;
15261;SDS011;7733;51.554;13.590;2023-06-10T05:16:07;7.20;;;6.50;;
15261;SDS011;7733;51.554;13.590;2023-06-10T05:18:34;8.53;;;6.73;;
15261;SDS011;7733;51.554;13.590;2023-06-10T05:21:00;8.97;;;6.93;;
15261;SDS011;7733;51.554;13.590;2023-06-10T05:23:27;8.47;;;6.73;;
15261;SDS011;7733;51.554;13.590;2023-06-10T05:25:53;7.17;;;6.57;;
15261;SDS011;7733;51.554;13.590;2023-06-10T05:28:20;6.80;;;6.10;;
15261;SDS011;7733;51.554;13.590;2023-06-10T05:30:45;7.73;;;7.03;;
15261;SDS011;7733;51.554;13.590;2023-06-10T05:33:11;9.57;;;6.93;;
15261;SDS011;7733;51.554;13.590;2023-06-10T05:35:37;8.30;;;7.40;;
15261;SDS011;7733;51.554;13.590;2023-06-10T05:38:02;7.40;;;6.60;;
15261;SDS011;7733;51.554;13.590;2023-06-10T05:40:28;7.90;;;7.10;;
15261;SDS011;7733;51.554;13.590;2023-06-10T05:42:54;8.40;;;7.13;;
15261;SDS011;7733;51.554;13.590;2023-06-10T05:45:20;8.13;;;6.97;;
15261;SDS011;7733;51.554;13.590;2023-06-10T05:47:45;9.23;;;7.23;;
15261;SDS011;7733;51.554;13.590;2023-06-10T05:50:11;8.87;;;7.00;;
15261;SDS011;7733;51.554;13.590;2023-06-10T05:52:37;7.90;;;7.10;;
15261;SDS011;7733;51.554;13.590;2023-06-10T05:55:05;8.87;;;7.70;;
15261;SDS011;7733;51.554;13.590;2023-06-10T05:57:31;7.90;;;7.10;;
15261;SDS011;7733;51.554;13.590;2023-06-10T05:59:57;9.33;;;7.57;;
15261;SDS011;7733;51.554;13.590;2023-06-10T06:02:23;8.30;;;7.50;;
15261;SDS011;7733;51.554;13.590;2023-06-10T06:04:49;8.20;;;7.47;;
15261;SDS011;7733;51.554;13.590;2023-06-10T06:07:15;8.80;;;7.87;;
15261;SDS011;7733;51.554;13.590;2023-06-10T06:09:41;8.60;;;7.70;;
15261;SDS011;7733;51.554;13.590;2023-06-10T06:12:07;8.57;;;7.40;;
15261;SDS011;7733;51.554;13.590;2023-06-10T06:14:36;8.10;;;7.40;;
15261;SDS011;7733;51.554;13.590;2023-06-10T06:17:06;8.10;;;7.30;;
15261;SDS011;7733;51.554;13.590;2023-06-10T06:19:32;10.10;;;8.27;;
15261;SDS011;7733;51.554;13.590;2023-06-10T06:21:58;9.10;;;7.40;;
15261;SDS011;7733;51.554;13.590;2023-06-10T06:24:24;7.90;;;7.10;;
15261;SDS011;7733;51.554;13.590;2023-06-10T06:26:50;8.30;;;7.50;;
15261;SDS011;7733;51.554;13.590;2023-06-10T06:29:16;7.60;;;6.90;;
15261;SDS011;7733;51.554;13.590;2023-06-10T06:31:41;8.20;;;7.37;;
15261;SDS011;7733;51.554;13.590;2023-06-10T06:34:07;8.20;;;7.43;;
15261;SDS011;7733;51.554;13.590;2023-06-10T06:36:33;8.30;;;7.50;;
15261;SDS011;7733;51.554;13.590;2023-06-10T06:38:58;7.40;;;6.80;;
15261;SDS011;7733;51.554;13.590;2023-06-10T06:41:27;8.27;;;7.47;;
15261;SDS011;7733;51.554;13.590;2023-06-10T06:43:54;7.80;;;7.10;;
15261;SDS011;7733;51.554;13.590;2023-06-10T06:46:20;7.40;;;6.83;;
15261;SDS011;7733;51.554;13.590;2023-06-10T06:48:47;8.23;;;7.30;;
15261;SDS011;7733;51.554;13.590;2023-06-10T06:51:13;7.60;;;6.83;;
15261;SDS011;7733;51.554;13.590;2023-06-10T06:53:39;7.73;;;7.00;;
15261;SDS011;7733;51.554;13.590;2023-06-10T06:56:09;7.67;;;7.07;;
15261;SDS011;7733;51.554;13.590;2023-06-10T06:58:39;7.60;;;6.90;;
15261;SDS011;7733;51.554;13.590;2023-06-10T07:01:04;7.90;;;7.23;;
15261;SDS011;7733;51.554;13.590;2023-06-10T07:03:30;7.80;;;7.20;;
15261;SDS011;7733;51.554;13.590;2023-06-10T07:05:57;7.90;;;7.20;;
15261;SDS011;7733;51.554;13.590;2023-06-10T07:08:23;8.17;;;7.40;;
15261;SDS011;7733;51.554;13.590;2023-06-10T07:10:48;7.93;;;6.87;;
15261;SDS011;7733;51.554;13.590;2023-06-10T07:13:14;7.07;;;6.57;;
15261;SDS011;7733;51.554;13.590;2023-06-10T07:15:40;7.37;;;6.67;;
15261;SDS011;7733;51.554;13.590;2023-06-10T07:18:06;7.87;;;7.17;;
15261;SDS011;7733;51.554;13.590;2023-06-10T07:20:32;7.60;;;6.97;;
15261;SDS011;7733;51.554;13.590;2023-06-10T07:22:57;7.10;;;6.50;;
15261;SDS011;7733;51.554;13.590;2023-06-10T07:25:23;8.23;;;7.07;;
15261;SDS011;7733;51.554;13.590;2023-06-10T07:27:49;7.37;;;6.83;;
15261;SDS011;7733;51.554;13.590;2023-06-10T07:30:14;7.40;;;6.80;;
15261;SDS011;7733;51.554;13.590;2023-06-10T07:32:40;7.80;;;7.13;;
15261;SDS011;7733;51.554;13.590;2023-06-10T07:35:08;7.27;;;6.67;;
15261;SDS011;7733;51.554;13.590;2023-06-10T07:37:37;7.13;;;6.53;;
15261;SDS011;7733;51.554;13.590;2023-06-10T07:40:03;7.00;;;6.43;;
15261;SDS011;7733;51.554;13.590;2023-06-10T07:42:31;7.20;;;6.70;;
15261;SDS011;7733;51.554;13.590;2023-06-10T07:44:59;7.03;;;6.23;;
15261;SDS011;7733;51.554;13.590;2023-06-10T07:47:25;7.30;;;6.80;;
15261;SDS011;7733;51.554;13.590;2023-06-10T07:49:51;7.50;;;6.67;;
15261;SDS011;7733;51.554;13.590;2023-06-10T07:52:17;7.00;;;6.50;;
15261;SDS011;7733;51.554;13.590;2023-06-10T07:54:42;6.10;;;5.70;;
15261;SDS011;7733;51.554;13.590;2023-06-10T07:57:08;6.40;;;6.00;;
15261;SDS011;7733;51.554;13.590;2023-06-10T07:59:34;6.23;;;5.73;;
15261;SDS011;7733;51.554;13.590;2023-06-10T08:02:00;6.30;;;5.87;;
15261;SDS011;7733;51.554;13.590;2023-06-10T08:04:26;6.53;;;5.50;;
15261;SDS011;7733;51.554;13.590;2023-06-10T08:06:51;6.47;;;5.87;;
15261;SDS011;7733;51.554;13.590;2023-06-10T08:09:17;5.77;;;5.33;;
15261;SDS011;7733;51.554;13.590;2023-06-10T08:11:43;5.77;;;5.43;;
15261;SDS011;7733;51.554;13.590;2023-06-10T08:14:11;5.53;;;5.10;;
15261;SDS011;7733;51.554;13.590;2023-06-10T08:16:37;5.27;;;4.93;;
15261;SDS011;7733;51.554;13.590;2023-06-10T08:19:03;5.23;;;4.83;;
15261;SDS011;7733;51.554;13.590;2023-06-10T08:21:28;6.03;;;5.53;;
15261;SDS011;7733;51.554;13.590;2023-06-10T08:23:54;5.50;;;5.00;;
15261;SDS011;7733;51.554;13.590;2023-06-10T08:26:20;5.63;;;5.13;;
15261;SDS011;7733;51.554;13.590;2023-06-10T08:28:46;6.07;;;5.47;;
15261;SDS011;7733;51.554;13.590;2023-06-10T08:31:12;5.27;;;4.90;;
15261;SDS011;7733;51.554;13.590;2023-06-10T08:33:37;5.10;;;4.60;;
15261;SDS011;7733;51.554;13.590;2023-06-10T08:36:03;5.33;;;4.50;;
15261;SDS011;7733;51.554;13.590;2023-06-10T08:38:29;7.30;;;4.93;;
15261;SDS011;7733;51.554;13.590;2023-06-10T08:40:59;4.97;;;4.60;;
15261;SDS011;7733;51.554;13.590;2023-06-10T08:46:10;4.70;;;4.40;;
15261;SDS011;7733;51.554;13.590;2023-06-10T08:48:41;6.90;;;5.10;;
15261;SDS011;7733;51.554;13.590;2023-06-10T08:51:11;8.03;;;4.90;;
15261;SDS011;7733;51.554;13.590;2023-06-10T08:53:44;4.50;;;4.10;;
15261;SDS011;7733;51.554;13.590;2023-06-10T08:56:21;4.70;;;4.40;;
15261;SDS011;7733;51.554;13.590;2023-06-10T08:58:51;5.13;;;4.63;;
15261;SDS011;7733;51.554;13.590;2023-06-10T09:01:18;4.80;;;4.40;;
15261;SDS011;7733;51.554;13.590;2023-06-10T09:03:44;4.60;;;4.40;;
15261;SDS011;7733;51.554;13.590;2023-06-10T09:06:11;5.13;;;4.43;;
15261;SDS011;7733;51.554;13.590;2023-06-10T09:08:38;5.73;;;4.30;;
15261;SDS011;7733;51.554;13.590;2023-06-10T09:11:04;4.73;;;4.50;;
15261;SDS011;7733;51.554;13.590;2023-06-10T09:13:31;5.80;;;4.30;;
15261;SDS011;7733;51.554;13.590;2023-06-10T09:15:57;8.00;;;4.60;;
15261;SDS011;7733;51.554;13.590;2023-06-10T09:18:26;4.10;;;3.90;;
15261;SDS011;7733;51.554;13.590;2023-06-10T09:20:53;4.70;;;4.30;;
15261;SDS011;7733;51.554;13.590;2023-06-10T09:23:19;3.90;;;3.70;;
15261;SDS011;7733;51.554;13.590;2023-06-10T09:25:44;4.20;;;3.93;;
15261;SDS011;7733;51.554;13.590;2023-06-10T09:28:14;3.80;;;3.60;;
15261;SDS011;7733;51.554;13.590;2023-06-10T09:30:40;4.10;;;3.80;;
15261;SDS011;7733;51.554;13.590;2023-06-10T09:33:13;3.97;;;3.73;;
15261;SDS011;7733;51.554;13.590;2023-06-10T09:35:47;5.10;;;3.87;;
15261;SDS011;7733;51.554;13.590;2023-06-10T09:38:15;7.47;;;3.87;;
15261;SDS011;7733;51.554;13.590;2023-06-10T09:43:16;4.23;;;3.93;;
15261;SDS011;7733;51.554;13.590;2023-06-10T09:45:42;4.93;;;4.63;;
15261;SDS011;7733;51.554;13.590;2023-06-10T09:48:08;4.77;;;4.27;;
15261;SDS011;7733;51.554;13.590;2023-06-10T09:50:34;5.10;;;4.57;;
15261;SDS011;7733;51.554;13.590;2023-06-10T09:53:06;5.30;;;4.60;;
15261;SDS011;7733;51.554;13.590;2023-06-10T09:55:33;4.27;;;4.07;;
15261;SDS011;7733;51.554;13.590;2023-06-10T09:57:59;4.37;;;4.17;;
15261;SDS011;7733;51.554;13.590;2023-06-10T10:00:25;4.53;;;4.27;;
15261;SDS011;7733;51.554;13.590;2023-06-10T10:02:51;4.73;;;4.23;;
15261;SDS011;7733;51.554;13.590;2023-06-10T10:05:20;5.13;;;4.57;;
15261;SDS011;7733;51.554;13.590;2023-06-10T10:07:47;4.67;;;4.27;;
15261;SDS011;7733;51.554;13.590;2023-06-10T10:10:13;5.87;;;4.00;;
15261;SDS011;7733;51.554;13.590;2023-06-10T10:12:41;4.57;;;4.30;;
15261;SDS011;7733;51.554;13.590;2023-06-10T10:15:11;4.60;;;4.30;;
15261;SDS011;7733;51.554;13.590;2023-06-10T10:17:40;5.10;;;4.70;;
15261;SDS011;7733;51.554;13.590;2023-06-10T10:20:19;4.77;;;4.57;;
15261;SDS011;7733;51.554;13.590;2023-06-10T10:22:56;4.80;;;4.40;;
15261;SDS011;7733;51.554;13.590;2023-06-10T10:25:25;4.63;;;4.23;;
15261;SDS011;7733;51.554;13.590;2023-06-10T10:27:57;5.40;;;5.00;;
15261;SDS011;7733;51.554;13.590;2023-06-10T10:30:34;4.97;;;4.50;;
15261;SDS011;7733;51.554;13.590;2023-06-10T10:33:16;4.43;;;4.20;;
15261;SDS011;7733;51.554;13.590;2023-06-10T10:35:48;4.90;;;4.40;;
15261;SDS011;7733;51.554;13.590;2023-06-10T10:38:15;4.97;;;4.57;;
15261;SDS011;7733;51.554;13.590;2023-06-10T10:40:42;4.33;;;4.13;;
15261;SDS011;7733;51.554;13.590;2023-06-10T10:43:10;4.70;;;4.50;;
15261;SDS011;7733;51.554;13.590;2023-06-10T10:45:37;4.53;;;4.23;;
15261;SDS011;7733;51.554;13.590;2023-06-10T10:48:07;4.40;;;4.20;;
15261;SDS011;7733;51.554;13.590;2023-06-10T10:50:37;4.63;;;4.30;;
15261;SDS011;7733;51.554;13.590;2023-06-10T10:53:04;4.80;;;4.43;;
15261;SDS011;7733;51.554;13.590;2023-06-10T10:55:30;4.80;;;4.47;;
15261;SDS011;7733;51.554;13.590;2023-06-10T10:58:03;5.23;;;4.47;;
15261;SDS011;7733;51.554;13.590;2023-06-10T11:05:41;5.03;;;4.60;;
15261;SDS011;7733;51.554;13.590;2023-06-10T11:08:12;5.10;;;4.67;;
15261;SDS011;7733;51.554;13.590;2023-06-10T11:10:59;5.27;;;4.67;;
15261;SDS011;7733;51.554;13.590;2023-06-10T11:13:25;4.40;;;4.10;;
15261;SDS011;7733;51.554;13.590;2023-06-10T11:15:53;4.27;;;4.07;;
15261;SDS011;7733;51.554;13.590;2023-06-10T11:18:24;4.03;;;3.73;;
15261;SDS011;7733;51.554;13.590;2023-06-10T11:21:03;4.67;;;3.90;;
15261;SDS011;7733;51.554;13.590;2023-06-10T11:23:32;4.33;;;4.07;;
15261;SDS011;7733;51.554;13.590;2023-06-10T11:31:31;4.40;;;3.83;;
15261;SDS011;7733;51.554;13.590;2023-06-10T11:34:09;5.17;;;4.53;;
15261;SDS011;7733;51.554;13.590;2023-06-10T11:36:39;3.80;;;3.60;;
15261;SDS011;7733;51.554;13.590;2023-06-10T11:39:08;5.70;;;4.00;;
15261;SDS011;7733;51.554;13.590;2023-06-10T11:41:35;4.23;;;3.90;;
15261;SDS011;7733;51.554;13.590;2023-06-10T11:46:36;5.67;;;4.10;;
15261;SDS011;7733;51.554;13.590;2023-06-10T11:49:04;5.47;;;4.10;;
15261;SDS011;7733;51.554;13.590;2023-06-10T11:51:35;4.50;;;4.10;;
15261;SDS011;7733;51.554;13.590;2023-06-10T11:54:08;4.20;;;4.00;;
15261;SDS011;7733;51.554;13.590;2023-06-10T11:56:34;4.53;;;4.13;;
15261;SDS011;7733;51.554;13.590;2023-06-10T11:59:05;4.93;;;3.70;;
15261;SDS011;7733;51.554;13.590;2023-06-10T12:01:42;4.33;;;4.00;;
15261;SDS011;7733;51.554;13.590;2023-06-10T12:04:10;4.03;;;3.73;;
15261;SDS011;7733;51.554;13.590;2023-06-10T12:11:44;5.37;;;3.43;;
15261;SDS011;7733;51.554;13.590;2023-06-10T12:14:13;5.67;;;3.90;;
15261;SDS011;7733;51.554;13.590;2023-06-10T12:16:39;4.60;;;3.50;;
15261;SDS011;7733;51.554;13.590;2023-06-10T12:19:05;5.53;;;3.97;;
15261;SDS011;7733;51.554;13.590;2023-06-10T12:21:32;3.80;;;3.67;;
15261;SDS011;7733;51.554;13.590;2023-06-10T12:24:02;4.17;;;3.87;;
15261;SDS011;7733;51.554;13.590;2023-06-10T12:26:39;4.23;;;3.97;;
15261;SDS011;7733;51.554;13.590;2023-06-10T12:29:23;4.00;;;3.70;;
15261;SDS011;7733;51.554;13.590;2023-06-10T12:34:37;3.80;;;3.50;;
15261;SDS011;7733;51.554;13.590;2023-06-10T12:37:05;4.20;;;3.50;;
15261;SDS011;7733;51.554;13.590;2023-06-10T12:39:38;5.37;;;3.70;;
15261;SDS011;7733;51.554;13.590;2023-06-10T12:42:06;4.07;;;3.47;;
15261;SDS011;7733;51.554;13.590;2023-06-10T12:44:35;3.60;;;3.40;;
15261;SDS011;7733;51.554;13.590;2023-06-10T12:47:08;3.83;;;3.20;;
15261;SDS011;7733;51.554;13.590;2023-06-10T12:49:39;4.57;;;3.67;;
15261;SDS011;7733;51.554;13.590;2023-06-10T12:52:05;4.73;;;3.50;;
15261;SDS011;7733;51.554;13.590;2023-06-10T12:54:31;3.97;;;3.67;;
15261;SDS011;7733;51.554;13.590;2023-06-10T12:56:57;3.47;;;3.27;;
15261;SDS011;7733;51.554;13.590;2023-06-10T12:59:23;3.87;;;3.67;;
15261;SDS011;7733;51.554;13.590;2023-06-10T13:01:50;6.67;;;4.00;;
15261;SDS011;7733;51.554;13.590;2023-06-10T13:04:19;3.70;;;3.47;;
15261;SDS011;7733;51.554;13.590;2023-06-10T13:06:46;3.90;;;3.60;;
15261;SDS011;7733;51.554;13.590;2023-06-10T13:09:14;4.83;;;3.47;;
15261;SDS011;7733;51.554;13.590;2023-06-10T13:11:40;3.63;;;3.40;;
15261;SDS011;7733;51.554;13.590;2023-06-10T13:14:07;3.87;;;3.47;;
15261;SDS011;7733;51.554;13.590;2023-06-10T13:16:35;3.67;;;3.47;;
15261;SDS011;7733;51.554;13.590;2023-06-10T13:19:03;4.10;;;3.80;;
15261;SDS011;7733;51.554;13.590;2023-06-10T13:21:30;4.23;;;3.93;;
15261;SDS011;7733;51.554;13.590;2023-06-10T13:23:57;5.33;;;3.80;;
15261;SDS011;7733;51.554;13.590;2023-06-10T13:26:23;4.10;;;3.80;;
15261;SDS011;7733;51.554;13.590;2023-06-10T13:28:49;7.47;;;3.70;;
15261;SDS011;7733;51.554;13.590;2023-06-10T13:31:14;3.97;;;3.67;;
15261;SDS011;7733;51.554;13.590;2023-06-10T13:33:40;4.23;;;3.83;;
15261;SDS011;7733;51.554;13.590;2023-06-10T13:36:08;3.63;;;3.40;;
15261;SDS011;7733;51.554;13.590;2023-06-10T13:38:35;4.23;;;3.80;;
15261;SDS011;7733;51.554;13.590;2023-06-10T13:41:01;6.43;;;3.70;;
15261;SDS011;7733;51.554;13.590;2023-06-10T13:43:26;4.27;;;3.97;;
15261;SDS011;7733;51.554;13.590;2023-06-10T13:45:53;4.80;;;3.93;;
15261;SDS011;7733;51.554;13.590;2023-06-10T13:48:20;4.43;;;4.00;;
15261;SDS011;7733;51.554;13.590;2023-06-10T13:50:46;3.83;;;3.63;;
15261;SDS011;7733;51.554;13.590;2023-06-10T13:53:12;4.77;;;4.23;;
15261;SDS011;7733;51.554;13.590;2023-06-10T13:55:38;4.40;;;3.97;;
15261;SDS011;7733;51.554;13.590;2023-06-10T13:58:03;5.90;;;3.80;;
15261;SDS011;7733;51.554;13.590;2023-06-10T14:00:30;4.63;;;3.90;;
15261;SDS011;7733;51.554;13.590;2023-06-10T14:02:56;4.03;;;3.80;;
15261;SDS011;7733;51.554;13.590;2023-06-10T14:05:22;5.30;;;3.93;;
15261;SDS011;7733;51.554;13.590;2023-06-10T14:07:48;4.10;;;3.80;;
15261;SDS011;7733;51.554;13.590;2023-06-10T14:10:14;4.23;;;3.90;;
15261;SDS011;7733;51.554;13.590;2023-06-10T14:12:39;4.30;;;3.70;;
15261;SDS011;7733;51.554;13.590;2023-06-10T14:15:05;4.00;;;3.70;;
15261;SDS011;7733;51.554;13.590;2023-06-10T14:17:32;4.20;;;3.90;;
15261;SDS011;7733;51.554;13.590;2023-06-10T14:19:57;3.83;;;3.63;;
15261;SDS011;7733;51.554;13.590;2023-06-10T14:22:23;3.93;;;3.53;;
15261;SDS011;7733;51.554;13.590;2023-06-10T14:24:49;3.70;;;3.50;;
15261;SDS011;7733;51.554;13.590;2023-06-10T14:27:14;4.10;;;3.70;;
15261;SDS011;7733;51.554;13.590;2023-06-10T14:29:40;3.50;;;3.33;;
15261;SDS011;7733;51.554;13.590;2023-06-10T14:32:06;4.27;;;3.87;;
15261;SDS011;7733;51.554;13.590;2023-06-10T14:34:32;5.20;;;3.70;;
15261;SDS011;7733;51.554;13.590;2023-06-10T14:36:59;4.07;;;3.77;;
15261;SDS011;7733;51.554;13.590;2023-06-10T14:39:25;4.50;;;4.07;;
15261;SDS011;7733;51.554;13.590;2023-06-10T14:41:51;4.43;;;4.03;;
15261;SDS011;7733;51.554;13.590;2023-06-10T14:44:20;4.73;;;4.40;;
15261;SDS011;7733;51.554;13.590;2023-06-10T14:46:45;7.10;;;4.90;;
15261;SDS011;7733;51.554;13.590;2023-06-10T14:49:11;7.60;;;4.00;;
15261;SDS011;7733;51.554;13.590;2023-06-10T14:51:37;4.30;;;4.10;;
15261;SDS011;7733;51.554;13.590;2023-06-10T14:54:02;5.07;;;4.77;;
15261;SDS011;7733;51.554;13.590;2023-06-10T14:56:28;4.63;;;3.90;;
15261;SDS011;7733;51.554;13.590;2023-06-10T14:58:54;4.33;;;3.90;;
15261;SDS011;7733;51.554;13.590;2023-06-10T15:01:20;4.77;;;3.80;;
15261;SDS011;7733;51.554;13.590;2023-06-10T15:03:46;4.33;;;3.67;;
15261;SDS011;7733;51.554;13.590;2023-06-10T15:06:11;3.73;;;3.43;;
15261;SDS011;7733;51.554;13.590;2023-06-10T15:08:37;3.53;;;3.27;;
15261;SDS011;7733;51.554;13.590;2023-06-10T15:11:03;3.33;;;3.03;;
15261;SDS011;7733;51.554;13.590;2023-06-10T15:13:28;3.30;;;3.10;;
15261;SDS011;7733;51.554;13.590;2023-06-10T15:15:54;4.27;;;3.60;;
15261;SDS011;7733;51.554;13.590;2023-06-10T15:18:20;3.40;;;3.20;;
15261;SDS011;7733;51.554;13.590;2023-06-10T15:20:46;3.37;;;3.17;;